createdAt,value
2023-05-10T00:01:25.575Z,4.80
2023-05-10T00:03:52.212Z,4.63
2023-05-10T00:06:21.305Z,4.68
2023-05-10T00:08:47.642Z,4.72
2023-05-10T00:11:14.007Z,4.80
2023-05-10T00:13:43.242Z,4.82
2023-05-10T00:16:09.664Z,5.28
2023-05-10T00:18:36.096Z,5.40
2023-05-10T00:21:02.445Z,4.78
2023-05-10T00:23:28.771Z,5.30
2023-05-10T00:25:55.195Z,5.75
2023-05-10T00:28:21.577Z,5.18
2023-05-10T00:30:47.911Z,5.38
2023-05-10T00:33:14.450Z,5.53
2023-05-10T00:35:41.308Z,5.53
2023-05-10T00:38:10.201Z,5.40
2023-05-10T00:40:37.058Z,5.38
2023-05-10T00:43:03.982Z,4.78
2023-05-10T00:45:32.039Z,5.55
2023-05-10T00:47:58.971Z,5.53
2023-05-10T00:50:25.497Z,5.82
2023-05-10T00:52:51.872Z,6.35
2023-05-10T00:55:18.664Z,6.38
2023-05-10T00:57:45.338Z,6.20
2023-05-10T01:00:12.252Z,6.20
2023-05-10T01:02:39.139Z,5.75
2023-05-10T01:05:06.265Z,5.70
2023-05-10T01:07:32.696Z,5.53
2023-05-10T01:10:01.596Z,5.57
2023-05-10T01:12:28.272Z,5.68
2023-05-10T01:14:55.180Z,6.28
2023-05-10T01:17:22.672Z,5.88
2023-05-10T01:19:49.188Z,4.68
2023-05-10T01:22:27.549Z,4.65
2023-05-10T01:25:02.937Z,4.60
2023-05-10T01:27:32.372Z,3.67
2023-05-10T01:30:16.189Z,4.10
2023-05-10T01:35:14.837Z,2.30
2023-05-10T01:38:01.452Z,2.70
2023-05-10T01:40:31.512Z,1.80
2023-05-10T01:43:04.862Z,1.70
2023-05-10T01:45:40.617Z,1.60
2023-05-10T01:48:08.950Z,1.58
2023-05-10T01:50:38.533Z,1.50
2023-05-10T01:53:09.334Z,1.50
2023-05-10T01:55:40.686Z,1.50
2023-05-10T01:58:08.895Z,1.67
2023-05-10T02:00:36.135Z,1.40
2023-05-10T02:03:09.753Z,1.13
2023-05-10T02:05:37.631Z,1.20
2023-05-10T02:08:06.860Z,1.30
2023-05-10T02:10:40.324Z,1.10
2023-05-10T02:13:07.402Z,1.20
2023-05-10T02:15:34.223Z,1.70
2023-05-10T02:18:01.303Z,1.60
2023-05-10T02:20:27.984Z,1.80
2023-05-10T02:22:57.840Z,1.02
2023-05-10T02:25:24.670Z,1.00
2023-05-10T02:27:52.324Z,1.17
2023-05-10T02:30:19.286Z,1.30
2023-05-10T02:32:46.490Z,1.30
2023-05-10T02:35:13.126Z,1.70
2023-05-10T02:37:39.696Z,1.80
2023-05-10T02:40:06.771Z,1.60
2023-05-10T02:42:34.200Z,1.20
2023-05-10T02:45:05.048Z,1.23
2023-05-10T02:47:31.490Z,1.20
2023-05-10T02:49:57.925Z,1.00
2023-05-10T02:52:26.106Z,1.25
2023-05-10T02:54:55.476Z,0.95
2023-05-10T02:57:26.000Z,0.82
2023-05-10T02:59:52.428Z,1.05
2023-05-10T03:02:18.963Z,0.90
2023-05-10T03:04:45.380Z,1.10
2023-05-10T03:07:11.896Z,0.95
2023-05-10T03:09:38.277Z,1.20
2023-05-10T03:12:04.657Z,0.93
2023-05-10T03:14:40.299Z,0.90
2023-05-10T03:17:16.816Z,0.85
2023-05-10T03:19:50.549Z,0.90
2023-05-10T03:24:44.025Z,0.75
2023-05-10T03:27:10.795Z,0.60
2023-05-10T03:29:37.839Z,0.70
2023-05-10T03:32:04.370Z,0.52
2023-05-10T03:34:31.375Z,0.60
2023-05-10T03:36:57.825Z,0.60
2023-05-10T03:39:25.747Z,0.70
2023-05-10T03:41:52.205Z,0.90
2023-05-10T03:44:18.610Z,0.63
2023-05-10T03:46:47.446Z,0.73
2023-05-10T03:49:14.320Z,0.70
2023-05-10T03:51:40.816Z,0.60
2023-05-10T03:54:07.186Z,0.80
2023-05-10T03:56:36.025Z,0.75
2023-05-10T03:59:02.556Z,0.77
2023-05-10T04:01:28.958Z,0.90
2023-05-10T04:03:55.572Z,0.80
2023-05-10T04:06:22.121Z,0.90
2023-05-10T04:08:50.931Z,1.00
2023-05-10T04:11:17.299Z,0.85
2023-05-10T04:13:44.072Z,0.70
2023-05-10T04:16:10.591Z,0.80
2023-05-10T04:18:37.237Z,0.85
2023-05-10T04:21:03.668Z,0.90
2023-05-10T04:23:30.033Z,0.80
2023-05-10T04:26:02.900Z,1.00
2023-05-10T04:28:29.462Z,0.93
2023-05-10T04:31:08.360Z,0.70
2023-05-10T04:33:35.375Z,0.77
2023-05-10T04:36:02.190Z,1.00
2023-05-10T04:38:28.704Z,1.10
2023-05-10T04:40:55.020Z,0.90
2023-05-10T04:43:21.514Z,0.95
2023-05-10T04:45:47.900Z,0.90
2023-05-10T04:48:14.279Z,0.80
2023-05-10T04:50:40.675Z,0.70
2023-05-10T04:53:07.513Z,0.65
2023-05-10T04:55:33.909Z,0.82
2023-05-10T04:58:00.410Z,0.90
2023-05-10T05:00:26.798Z,0.93
2023-05-10T05:02:53.316Z,0.70
2023-05-10T05:05:19.765Z,0.90
2023-05-10T05:07:46.680Z,0.82
2023-05-10T05:10:13.108Z,0.85
2023-05-10T05:12:39.500Z,0.90
2023-05-10T05:15:07.842Z,0.80
2023-05-10T05:17:36.229Z,0.80
2023-05-10T05:20:02.723Z,0.80
2023-05-10T05:22:29.300Z,0.70
2023-05-10T05:24:59.143Z,0.80
2023-05-10T05:27:29.011Z,0.95
2023-05-10T05:29:55.809Z,0.80
2023-05-10T05:32:22.622Z,0.88
2023-05-10T05:34:49.077Z,1.00
2023-05-10T05:37:15.713Z,0.90
2023-05-10T05:39:43.289Z,0.60
2023-05-10T05:42:12.965Z,0.80
2023-05-10T05:44:42.244Z,0.63
2023-05-10T05:47:08.699Z,1.20
2023-05-10T05:49:35.317Z,0.82
2023-05-10T05:52:02.640Z,0.90
2023-05-10T05:54:29.280Z,0.93
2023-05-10T05:57:00.457Z,0.73
2023-05-10T05:59:28.130Z,0.60
2023-05-10T06:01:54.732Z,0.73
2023-05-10T06:04:21.167Z,0.70
2023-05-10T06:06:47.564Z,0.70
2023-05-10T06:09:14.011Z,0.57
2023-05-10T06:11:40.396Z,0.60
2023-05-10T06:14:08.419Z,0.60
2023-05-10T06:16:35.171Z,0.60
2023-05-10T06:19:01.740Z,0.55
2023-05-10T06:21:28.123Z,0.60
2023-05-10T06:23:56.876Z,0.55
2023-05-10T06:26:23.352Z,1.10
2023-05-10T06:28:49.765Z,0.90
2023-05-10T06:31:17.006Z,0.90
2023-05-10T06:33:43.539Z,0.90
2023-05-10T06:36:10.012Z,0.90
2023-05-10T06:38:36.408Z,1.00
2023-05-10T06:41:02.935Z,0.90
2023-05-10T06:43:29.753Z,1.00
2023-05-10T06:45:56.315Z,0.90
2023-05-10T06:48:22.938Z,1.05
2023-05-10T06:50:51.797Z,0.82
2023-05-10T06:53:18.134Z,0.85
2023-05-10T06:55:44.512Z,0.85
2023-05-10T06:58:10.898Z,0.90
2023-05-10T07:00:41.398Z,0.98
2023-05-10T07:03:08.171Z,0.75
2023-05-10T07:05:34.775Z,0.60
2023-05-10T07:08:01.893Z,0.70
2023-05-10T07:10:28.245Z,0.70
2023-05-10T07:12:54.746Z,0.90
2023-05-10T07:15:21.275Z,1.10
2023-05-10T07:17:47.760Z,1.30
2023-05-10T07:20:14.234Z,1.38
2023-05-10T07:22:40.656Z,1.25
2023-05-10T07:25:07.326Z,1.48
2023-05-10T07:27:33.672Z,1.15
2023-05-10T07:30:00.188Z,0.60
2023-05-10T07:32:26.883Z,0.80
2023-05-10T07:34:53.371Z,4.85
2023-05-10T07:37:19.743Z,1.63
2023-05-10T07:39:46.467Z,2.05
2023-05-10T07:42:12.837Z,4.65
2023-05-10T07:44:39.244Z,2.78
2023-05-10T07:47:05.655Z,3.08
2023-05-10T07:49:32.074Z,1.02
2023-05-10T07:51:58.411Z,0.85
2023-05-10T07:54:24.916Z,0.80
2023-05-10T07:56:54.184Z,0.88
2023-05-10T07:59:21.308Z,0.70
2023-05-10T08:01:47.634Z,0.68
2023-05-10T08:04:14.096Z,0.80
2023-05-10T08:06:40.791Z,0.60
2023-05-10T08:09:07.284Z,0.70
2023-05-10T08:11:35.024Z,0.70
2023-05-10T08:14:01.771Z,0.50
2023-05-10T08:16:28.513Z,0.50
2023-05-10T08:18:56.334Z,0.80
2023-05-10T08:21:22.994Z,0.57
2023-05-10T08:23:49.964Z,0.70
2023-05-10T08:26:16.480Z,1.20
2023-05-10T08:28:42.890Z,0.60
2023-05-10T08:31:09.340Z,0.50
2023-05-10T08:33:35.756Z,0.63
2023-05-10T08:36:02.151Z,0.80
2023-05-10T08:38:28.654Z,1.00
2023-05-10T08:40:57.895Z,1.05
2023-05-10T08:43:27.105Z,1.20
2023-05-10T08:45:56.897Z,1.48
2023-05-10T08:48:24.332Z,2.10
2023-05-10T08:50:53.646Z,1.73
2023-05-10T08:53:23.462Z,1.52
2023-05-10T08:55:50.050Z,1.90
2023-05-10T08:58:16.542Z,1.80
2023-05-10T09:00:43.023Z,1.70
2023-05-10T09:03:09.953Z,1.40
2023-05-10T09:05:37.168Z,1.60
2023-05-10T09:08:03.597Z,1.30
2023-05-10T09:10:30.830Z,1.80
2023-05-10T09:12:59.424Z,1.45
2023-05-10T09:15:26.229Z,1.40
2023-05-10T09:17:55.133Z,1.88
2023-05-10T09:20:22.087Z,1.52
2023-05-10T09:22:48.523Z,1.58
2023-05-10T09:25:16.004Z,1.30
2023-05-10T09:27:46.081Z,1.35
2023-05-10T09:30:17.730Z,1.33
2023-05-10T09:32:44.958Z,1.50
2023-05-10T09:35:15.569Z,1.42
2023-05-10T09:37:46.886Z,1.45
2023-05-10T09:40:22.863Z,1.42
2023-05-10T09:42:56.224Z,1.70
2023-05-10T09:45:26.709Z,1.90
2023-05-10T09:47:53.371Z,1.75
2023-05-10T09:50:20.450Z,1.90
2023-05-10T09:52:48.003Z,1.67
2023-05-10T09:55:14.795Z,1.52
2023-05-10T09:57:43.469Z,1.77
2023-05-10T10:00:13.415Z,1.90
2023-05-10T10:02:40.088Z,1.85
2023-05-10T10:05:07.448Z,1.75
2023-05-10T10:07:34.475Z,1.88
2023-05-10T10:10:01.271Z,1.90
2023-05-10T10:12:30.056Z,1.92
2023-05-10T10:14:57.094Z,1.90
2023-05-10T10:17:27.666Z,1.70
2023-05-10T10:19:54.055Z,1.75
2023-05-10T10:22:20.562Z,1.70
2023-05-10T10:24:47.034Z,1.73
2023-05-10T10:27:21.798Z,1.45
2023-05-10T10:29:59.424Z,1.67
2023-05-10T10:32:28.875Z,2.05
2023-05-10T10:34:57.978Z,1.70
2023-05-10T10:37:25.083Z,1.35
2023-05-10T10:39:51.570Z,1.60
2023-05-10T10:42:37.893Z,1.40
2023-05-10T10:45:14.523Z,1.80
2023-05-10T10:47:41.102Z,1.40
2023-05-10T10:50:09.083Z,1.40
2023-05-10T10:52:36.605Z,1.20
2023-05-10T10:55:10.132Z,1.25
2023-05-10T10:57:52.753Z,1.35
2023-05-10T11:00:24.117Z,1.30
2023-05-10T11:02:54.999Z,1.10
2023-05-10T11:05:24.609Z,1.30
2023-05-10T11:07:58.416Z,1.10
2023-05-10T11:10:25.569Z,1.17
2023-05-10T11:13:05.218Z,1.40
2023-05-10T11:15:34.541Z,0.95
2023-05-10T11:18:16.992Z,1.23
2023-05-10T11:20:43.556Z,1.23
2023-05-10T11:23:14.164Z,1.15
2023-05-10T11:25:45.067Z,1.10
2023-05-10T11:28:14.488Z,1.05
2023-05-10T11:30:41.686Z,0.90
2023-05-10T11:33:08.611Z,0.93
2023-05-10T11:35:42.385Z,0.98
2023-05-10T11:38:10.610Z,0.82
2023-05-10T11:40:37.823Z,0.82
2023-05-10T11:43:04.609Z,0.93
2023-05-10T11:45:34.391Z,0.98
2023-05-10T11:48:00.944Z,0.93
2023-05-10T11:50:27.441Z,1.10
2023-05-10T11:52:54.507Z,1.17
2023-05-10T11:55:23.227Z,3.60
2023-05-10T11:57:52.750Z,1.33
2023-05-10T12:00:21.684Z,1.40
2023-05-10T12:02:49.014Z,1.73
2023-05-10T12:05:15.777Z,2.17
2023-05-10T12:07:42.218Z,1.80
2023-05-10T12:10:16.024Z,2.10
2023-05-10T12:12:43.986Z,2.53
2023-05-10T12:15:31.159Z,2.70
2023-05-10T12:18:00.810Z,1.83
2023-05-10T12:20:28.614Z,1.70
2023-05-10T12:23:00.599Z,2.10
2023-05-10T12:25:30.940Z,2.50
2023-05-10T12:27:58.660Z,1.90
2023-05-10T12:30:29.245Z,2.22
2023-05-10T12:33:00.564Z,2.38
2023-05-10T12:35:27.071Z,1.40
2023-05-10T12:37:53.431Z,1.50
2023-05-10T12:40:19.790Z,1.27
2023-05-10T12:42:46.270Z,0.90
2023-05-10T12:45:13.253Z,1.08
2023-05-10T12:47:41.457Z,1.23
2023-05-10T12:50:10.681Z,1.05
2023-05-10T12:52:37.162Z,0.80
2023-05-10T12:55:04.180Z,1.00
2023-05-10T12:57:32.859Z,1.08
2023-05-10T12:59:59.257Z,0.82
2023-05-10T13:02:25.734Z,0.95
2023-05-10T13:04:52.284Z,0.85
2023-05-10T13:07:18.805Z,1.00
2023-05-10T13:09:45.599Z,1.00
2023-05-10T13:12:12.025Z,0.90
2023-05-10T13:14:38.584Z,0.70
2023-05-10T13:17:05.060Z,1.00
2023-05-10T13:19:31.515Z,1.00
2023-05-10T13:21:58.063Z,1.10
2023-05-10T13:24:24.499Z,1.02
2023-05-10T13:26:51.046Z,0.95
2023-05-10T13:29:18.979Z,0.90
2023-05-10T13:31:45.668Z,1.10
2023-05-10T13:34:12.171Z,1.30
2023-05-10T13:36:39.117Z,0.80
2023-05-10T13:39:06.238Z,0.80
2023-05-10T13:41:32.861Z,0.88
2023-05-10T13:43:59.285Z,0.70
2023-05-10T13:46:25.813Z,0.73
2023-05-10T13:48:52.296Z,1.00
2023-05-10T13:51:18.655Z,1.15
2023-05-10T13:53:45.036Z,1.10
2023-05-10T13:56:11.589Z,1.02
2023-05-10T13:58:38.146Z,1.10
2023-05-10T14:01:05.834Z,1.02
2023-05-10T14:03:33.551Z,0.80
2023-05-10T14:06:00.114Z,0.77
2023-05-10T14:08:28.075Z,0.80
2023-05-10T14:10:54.598Z,1.20
2023-05-10T14:13:23.463Z,0.80
2023-05-10T14:15:49.821Z,1.10
2023-05-10T14:18:16.328Z,1.30
2023-05-10T14:20:42.803Z,0.90
2023-05-10T14:23:11.666Z,1.20
2023-05-10T14:25:39.052Z,1.52
2023-05-10T14:28:05.606Z,1.42
2023-05-10T14:30:32.293Z,1.92
2023-05-10T14:32:59.564Z,2.10
2023-05-10T14:35:26.243Z,1.92
2023-05-10T14:37:52.804Z,2.08
2023-05-10T14:40:19.790Z,1.50
2023-05-10T14:42:46.252Z,1.60
2023-05-10T14:45:13.091Z,1.50
2023-05-10T14:47:39.573Z,1.35
2023-05-10T14:50:06.629Z,1.20
2023-05-10T14:52:34.357Z,0.85
2023-05-10T14:55:02.474Z,0.70
2023-05-10T14:57:30.597Z,0.60
2023-05-10T14:59:57.823Z,0.50
2023-05-10T15:02:24.678Z,0.90
2023-05-10T15:04:51.879Z,0.70
2023-05-10T15:07:19.445Z,0.73
2023-05-10T15:09:46.201Z,0.80
2023-05-10T15:12:12.798Z,0.50
2023-05-10T15:14:39.233Z,0.73
2023-05-10T15:17:07.345Z,0.80
2023-05-10T15:19:34.351Z,0.70
2023-05-10T15:22:00.838Z,0.70
2023-05-10T15:24:27.371Z,1.02
2023-05-10T15:26:53.973Z,0.98
2023-05-10T15:29:23.247Z,1.15
2023-05-10T15:31:50.581Z,1.42
2023-05-10T15:34:17.764Z,1.50
2023-05-10T15:36:44.721Z,1.17
2023-05-10T15:39:11.974Z,1.10
2023-05-10T15:41:38.385Z,1.10
2023-05-10T15:44:04.916Z,1.40
2023-05-10T15:46:31.651Z,1.40
2023-05-10T15:49:01.146Z,1.30
2023-05-10T15:51:27.525Z,1.65
2023-05-10T15:54:05.826Z,1.60
2023-05-10T15:56:36.167Z,1.85
2023-05-10T15:59:02.649Z,1.42
2023-05-10T16:01:29.375Z,1.40
2023-05-10T16:03:58.265Z,1.58
2023-05-10T16:06:24.961Z,1.30
2023-05-10T16:08:51.981Z,1.30
2023-05-10T16:11:19.859Z,1.58
2023-05-10T16:13:46.753Z,1.38
2023-05-10T16:16:13.199Z,1.25
2023-05-10T16:18:42.149Z,1.40
2023-05-10T16:21:08.672Z,1.40
2023-05-10T16:23:35.110Z,1.38
2023-05-10T16:26:01.463Z,1.40
2023-05-10T16:28:27.849Z,1.48
2023-05-10T16:30:54.216Z,1.42
2023-05-10T16:33:23.069Z,1.30
2023-05-10T16:35:49.566Z,1.92
2023-05-10T16:38:15.997Z,1.60
2023-05-10T16:40:44.931Z,1.50
2023-05-10T16:43:13.768Z,1.45
2023-05-10T16:45:40.264Z,1.10
2023-05-10T16:48:06.883Z,1.25
2023-05-10T16:50:33.292Z,1.13
2023-05-10T16:53:02.235Z,1.10
2023-05-10T16:55:28.638Z,1.20
2023-05-10T16:58:00.897Z,1.20
2023-05-10T17:00:29.684Z,1.13
2023-05-10T17:02:56.380Z,1.30
2023-05-10T17:05:22.953Z,1.60
2023-05-10T17:07:49.460Z,1.23
2023-05-10T17:10:16.371Z,1.45
2023-05-10T17:12:45.419Z,2.67
2023-05-10T17:15:12.420Z,2.58
2023-05-10T17:17:38.878Z,2.20
2023-05-10T17:20:05.653Z,2.05
2023-05-10T17:22:32.042Z,2.50
2023-05-10T17:24:58.452Z,2.00
2023-05-10T17:27:24.915Z,1.70
2023-05-10T17:29:55.692Z,1.60
2023-05-10T17:32:22.094Z,1.60
2023-05-10T17:34:48.469Z,2.90
2023-05-10T17:37:14.826Z,1.48
2023-05-10T17:39:41.314Z,1.80
2023-05-10T17:42:07.689Z,2.10
2023-05-10T17:44:34.094Z,1.70
2023-05-10T17:47:00.525Z,2.00
2023-05-10T17:49:28.730Z,1.95
2023-05-10T17:51:55.099Z,1.77
2023-05-10T17:54:21.571Z,1.23
2023-05-10T17:56:47.944Z,1.40
2023-05-10T17:59:16.708Z,1.98
2023-05-10T18:01:45.769Z,1.40
2023-05-10T18:04:12.278Z,1.40
2023-05-10T18:06:39.181Z,1.50
2023-05-10T18:09:07.212Z,1.30
2023-05-10T18:11:35.024Z,1.40
2023-05-10T18:14:01.480Z,1.50
2023-05-10T18:16:27.987Z,1.58
2023-05-10T18:18:54.484Z,1.30
2023-05-10T18:21:23.259Z,1.20
2023-05-10T18:23:49.713Z,1.60
2023-05-10T18:26:18.075Z,1.33
2023-05-10T18:28:44.513Z,1.33
2023-05-10T18:31:11.196Z,1.25
2023-05-10T18:33:37.574Z,1.38
2023-05-10T18:36:04.158Z,1.52
2023-05-10T18:38:33.156Z,1.90
2023-05-10T18:40:59.574Z,1.75
2023-05-10T18:43:26.003Z,1.50
2023-05-10T18:45:52.577Z,1.50
2023-05-10T18:48:19.167Z,1.50
2023-05-10T18:50:45.542Z,1.50
2023-05-10T18:53:14.399Z,1.20
2023-05-10T18:55:40.873Z,1.08
2023-05-10T18:58:07.242Z,1.20
2023-05-10T19:00:33.731Z,1.27
2023-05-10T19:03:00.221Z,1.20
2023-05-10T19:05:30.088Z,1.25
2023-05-10T19:07:56.681Z,1.00
2023-05-10T19:10:23.210Z,1.30
2023-05-10T19:12:54.621Z,0.90
2023-05-10T19:15:21.968Z,1.10
2023-05-10T19:17:48.677Z,1.10
2023-05-10T19:20:16.420Z,1.00
2023-05-10T19:23:02.014Z,1.27
2023-05-10T19:25:31.794Z,1.10
2023-05-10T19:27:58.501Z,1.10
2023-05-10T19:30:25.502Z,1.13
2023-05-10T19:32:52.045Z,0.98
2023-05-10T19:35:18.695Z,1.20
2023-05-10T19:37:47.119Z,1.20
2023-05-10T19:40:15.905Z,1.10
2023-05-10T19:42:42.377Z,0.98
2023-05-10T19:45:09.191Z,1.35
2023-05-10T19:47:36.307Z,1.10
2023-05-10T19:50:02.980Z,1.00
2023-05-10T19:52:29.545Z,1.10
2023-05-10T19:54:58.408Z,1.08
2023-05-10T19:57:25.102Z,1.08
2023-05-10T19:59:51.508Z,1.17
2023-05-10T20:02:18.248Z,1.05
2023-05-10T20:04:45.043Z,0.90
2023-05-10T20:07:12.313Z,1.20
2023-05-10T20:09:38.704Z,1.35
2023-05-10T20:12:05.149Z,1.30
2023-05-10T20:14:33.946Z,1.40
2023-05-10T20:17:00.512Z,1.17
2023-05-10T20:19:27.021Z,1.25
2023-05-10T20:21:56.035Z,1.38
2023-05-10T20:24:22.394Z,1.20
2023-05-10T20:26:48.751Z,1.20
2023-05-10T20:29:15.119Z,1.02
2023-05-10T20:31:41.570Z,1.23
2023-05-10T20:34:10.334Z,1.40
2023-05-10T20:36:36.693Z,1.27
2023-05-10T20:39:03.303Z,1.25
2023-05-10T20:41:32.201Z,1.27
2023-05-10T20:43:58.543Z,1.20
2023-05-10T20:46:26.930Z,1.60
2023-05-10T20:48:53.835Z,1.45
2023-05-10T20:51:20.300Z,1.40
2023-05-10T20:53:46.707Z,1.35
2023-05-10T20:56:13.102Z,1.08
2023-05-10T20:58:39.483Z,1.35
2023-05-10T21:01:08.387Z,1.30
2023-05-10T21:03:35.114Z,1.48
2023-05-10T21:06:03.750Z,1.10
2023-05-10T21:08:30.094Z,1.40
2023-05-10T21:10:56.483Z,1.38
2023-05-10T21:13:22.880Z,1.00
2023-05-10T21:15:49.267Z,1.25
2023-05-10T21:18:16.180Z,0.95
2023-05-10T21:20:42.609Z,1.13
2023-05-10T21:23:08.981Z,1.10
2023-05-10T21:25:35.589Z,1.05
2023-05-10T21:28:01.945Z,1.10
2023-05-10T21:30:28.369Z,1.08
2023-05-10T21:32:59.479Z,1.05
2023-05-10T21:35:26.348Z,1.10
2023-05-10T21:37:52.689Z,1.10
2023-05-10T21:40:19.331Z,1.10
2023-05-10T21:42:49.428Z,1.10
2023-05-10T21:45:17.117Z,1.48
2023-05-10T21:47:44.197Z,2.28
2023-05-10T21:50:10.906Z,2.40
2023-05-10T21:52:39.802Z,2.05
2023-05-10T21:55:08.642Z,2.20
2023-05-10T21:57:35.091Z,2.00
2023-05-10T22:00:01.496Z,1.80
2023-05-10T22:02:30.487Z,1.90
2023-05-10T22:04:57.250Z,1.85
2023-05-10T22:07:23.624Z,1.70
2023-05-10T22:09:49.955Z,1.60
2023-05-10T22:12:16.334Z,1.75
2023-05-10T22:14:42.699Z,1.73
2023-05-10T22:17:09.095Z,1.60
2023-05-10T22:19:35.564Z,1.50
2023-05-10T22:22:02.036Z,1.67
2023-05-10T22:24:28.821Z,1.40
2023-05-10T22:26:56.110Z,1.58
2023-05-10T22:29:23.176Z,1.48
2023-05-10T22:31:49.624Z,1.42
2023-05-10T22:34:18.820Z,1.30
2023-05-10T22:36:48.919Z,1.83
2023-05-10T22:39:17.670Z,2.13
2023-05-10T22:41:44.026Z,1.92
2023-05-10T22:44:10.404Z,2.17
2023-05-10T22:46:37.340Z,2.40
2023-05-10T22:49:03.792Z,2.10
2023-05-10T22:51:30.133Z,1.88
2023-05-10T22:53:56.493Z,1.92
2023-05-10T22:56:22.862Z,1.70
2023-05-10T22:58:49.721Z,2.13
2023-05-10T23:01:16.392Z,1.65
2023-05-10T23:03:42.822Z,1.70
2023-05-10T23:06:09.240Z,1.75
2023-05-10T23:08:35.587Z,1.50
2023-05-10T23:11:02.029Z,1.73
2023-05-10T23:13:28.551Z,1.60
2023-05-10T23:15:55.148Z,1.52
2023-05-10T23:18:21.681Z,1.58
2023-05-10T23:20:48.163Z,1.60
2023-05-10T23:23:14.545Z,1.30
2023-05-10T23:25:40.950Z,1.70
2023-05-10T23:28:07.469Z,1.55
2023-05-10T23:30:33.836Z,1.52
2023-05-10T23:33:00.298Z,1.50
2023-05-10T23:35:26.737Z,1.42
2023-05-10T23:37:53.085Z,1.30
2023-05-10T23:40:19.632Z,1.23
2023-05-10T23:42:48.639Z,1.27
2023-05-10T23:45:15.009Z,1.40
2023-05-10T23:47:41.622Z,1.20
2023-05-10T23:50:08.226Z,1.20
2023-05-10T23:52:37.107Z,1.30
2023-05-10T23:55:03.640Z,1.20
2023-05-10T23:57:30.005Z,2.55
2023-05-10T23:59:56.384Z,1.85
